Time;durP1;ratioP1;P1;durP2;ratioP2;P2;SDS_P1;SDS_P2;PMS_P1;PMS_P2;Temp;Humidity;BMP_temperature;BMP_pressure;BME280_temperature;BME280_humidity;BME280_pressure;Samples;Min_cycle;Max_cycle;Signal;HPM_P1;HPM_P2
2022/05/31 00:00:20;;;;;;;15.05;2.45;;;15.90;86.80;;;;;;4973091;28;20083;-74
2022/05/31 00:02:46;;;;;;;10.15;1.75;;;15.90;86.10;;;;;;4973840;28;20023;-75
2022/05/31 00:05:13;;;;;;;9.57;1.83;;;15.90;86.30;;;;;;4975268;28;20042;-74
2022/05/31 00:07:41;;;;;;;6.38;1.10;;;15.90;86.30;;;;;;4983178;28;20573;-75
2022/05/31 00:10:10;;;;;;;3.47;1.63;;;15.90;86.30;;;;;;4977691;28;20034;-74
2022/05/31 00:12:38;;;;;;;6.00;2.17;;;15.90;86.40;;;;;;4978480;28;20030;-75
2022/05/31 00:15:06;;;;;;;5.40;1.73;;;15.90;86.50;;;;;;4974692;28;20029;-75
2022/05/31 00:17:33;;;;;;;6.40;1.83;;;15.80;86.50;;;;;;4974165;28;20110;-75
2022/05/31 00:19:59;;;;;;;11.07;2.28;;;15.90;86.60;;;;;;5062691;28;20396;-74
2022/05/31 00:22:27;;;;;;;2.55;1.20;;;15.90;86.50;;;;;;4974911;28;20057;-74
2022/05/31 00:24:54;;;;;;;5.13;1.85;;;15.80;86.50;;;;;;4975878;28;20114;-75
2022/05/31 00:27:24;;;;;;;5.13;1.38;;;15.80;86.50;;;;;;4973649;28;20099;-75
2022/05/31 00:29:51;;;;;;;9.70;1.50;;;15.80;86.50;;;;;;4981082;28;20026;-75
2022/05/31 00:32:28;;;;;;;8.45;2.38;;;15.80;86.70;;;;;;4975319;28;20070;-75
2022/05/31 00:34:58;;;;;;;6.38;1.67;;;15.80;86.80;;;;;;4972289;28;20158;-77
2022/05/31 00:37:25;;;;;;;7.18;1.75;;;15.80;86.70;;;;;;4977375;28;20023;-75
2022/05/31 00:39:51;;;;;;;11.73;2.13;;;15.80;86.70;;;;;;5078406;28;20491;-76
2022/05/31 00:42:21;;;;;;;6.57;1.58;;;15.80;86.60;;;;;;4977428;28;20034;-76
2022/05/31 00:44:49;;;;;;;8.95;3.13;;;15.80;86.50;;;;;;4979398;28;20500;-76
2022/05/31 00:47:24;;;;;;;12.02;1.83;;;15.80;86.30;;;;;;4974425;28;20014;-75
2022/05/31 00:49:57;;;;;;;7.72;1.67;;;15.80;86.20;;;;;;4977201;28;20023;-76
2022/05/31 00:52:36;;;;;;;6.50;1.83;;;15.70;86.10;;;;;;4980045;28;20316;-76
2022/05/31 00:55:15;;;;;;;3.92;1.30;;;15.70;86.10;;;;;;4985111;28;20026;-76
2022/05/31 00:58:07;;;;;;;5.45;1.90;;;15.70;86.10;;;;;;4978022;28;20022;-76
2022/05/31 01:00:36;;;;;;;4.68;1.40;;;15.70;86.30;;;;;;4979508;28;20031;-77
2022/05/31 01:03:04;;;;;;;7.32;1.70;;;15.70;86.40;;;;;;4982820;28;20497;-76
2022/05/31 01:05:31;;;;;;;2.53;1.25;;;15.70;86.50;;;;;;4985289;28;20047;-76
2022/05/31 01:07:58;;;;;;;8.20;1.45;;;15.70;86.50;;;;;;4982065;28;20045;-77
2022/05/31 01:10:24;;;;;;;4.22;2.13;;;15.70;86.10;;;;;;4979703;28;20064;-76
2022/05/31 01:12:52;;;;;;;5.75;1.42;;;15.70;86.60;;;;;;4978700;28;20019;-77
2022/05/31 01:15:19;;;;;;;6.43;1.67;;;15.60;86.60;;;;;;4981798;28;20026;-77
2022/05/31 01:17:46;;;;;;;6.55;1.15;;;15.70;86.40;;;;;;4981744;28;20105;-75
2022/05/31 01:20:20;;;;;;;6.55;2.65;;;15.60;86.40;;;;;;4980820;28;20076;-76
2022/05/31 01:22:50;;;;;;;7.90;1.23;;;15.60;86.50;;;;;;4977116;28;20023;-75
2022/05/31 01:25:23;;;;;;;4.10;1.20;;;15.60;86.50;;;;;;4980770;28;20035;-75
2022/05/31 01:28:25;;;;;;;4.97;1.65;;;15.60;86.50;;;;;;4981433;28;20596;-75
2022/05/31 01:31:30;;;;;;;6.05;1.50;;;15.60;86.60;;;;;;4980395;28;20626;-75
2022/05/31 01:34:38;;;;;;;9.18;1.80;;;15.60;86.50;;;;;;4976923;28;20026;-75
2022/05/31 01:37:05;;;;;;;9.75;3.25;;;15.50;86.50;;;;;;4975410;28;20440;-75
2022/05/31 01:40:18;;;;;;;6.88;2.10;;;15.50;86.50;;;;;;4984974;28;20019;-75
2022/05/31 01:42:47;;;;;;;7.85;2.63;;;15.50;86.50;;;;;;5050500;28;20036;-76
2022/05/31 01:45:18;;;;;;;6.05;1.17;;;15.50;86.70;;;;;;5049196;28;20651;-76
2022/05/31 01:47:45;;;;;;;8.23;1.42;;;15.50;87.00;;;;;;5012837;28;20039;-75
2022/05/31 01:50:18;;;;;;;9.25;1.95;;;15.50;87.20;;;;;;4972598;28;20381;-76
2022/05/31 01:52:47;;;;;;;8.65;1.42;;;15.50;87.30;;;;;;4975659;28;20058;-76
2022/05/31 01:55:14;;;;;;;7.57;1.42;;;15.50;87.40;;;;;;4979811;28;20359;-76
2022/05/31 01:57:44;;;;;;;4.18;1.50;;;15.50;87.40;;;;;;4980346;28;20011;-76
2022/05/31 02:00:13;;;;;;;5.93;1.45;;;15.50;87.60;;;;;;4979131;28;20026;-75
2022/05/31 02:02:40;;;;;;;7.53;1.58;;;15.50;87.70;;;;;;4980987;28;20473;-75
2022/05/31 02:05:07;;;;;;;5.28;1.65;;;15.60;87.80;;;;;;4977560;28;20026;-76
2022/05/31 02:07:33;;;;;;;4.25;0.90;;;15.60;87.90;;;;;;4984147;28;20042;-76
2022/05/31 02:10:00;;;;;;;4.57;1.55;;;15.60;87.90;;;;;;4975454;28;20456;-77
2022/05/31 02:12:29;;;;;;;4.68;2.00;;;15.60;87.90;;;;;;4977140;28;20029;-76
2022/05/31 02:14:56;;;;;;;6.45;1.90;;;15.60;87.80;;;;;;4982016;28;20488;-77
2022/05/31 02:17:23;;;;;;;6.95;1.30;;;15.60;87.80;;;;;;4975686;28;20019;-76
2022/05/31 02:19:49;;;;;;;8.80;2.83;;;15.50;87.70;;;;;;4979938;28;20019;-76
2022/05/31 02:22:19;;;;;;;6.85;1.60;;;15.50;87.70;;;;;;4977219;28;20027;-76
2022/05/31 02:24:46;;;;;;;3.25;1.48;;;15.50;87.80;;;;;;4977445;28;20130;-76
2022/05/31 02:27:14;;;;;;;3.40;1.30;;;15.60;88.00;;;;;;4979491;28;20046;-76
2022/05/31 02:29:42;;;;;;;9.10;1.90;;;15.50;88.10;;;;;;4981091;28;20041;-76
2022/05/31 02:32:11;;;;;;;6.88;2.10;;;15.60;88.10;;;;;;4975986;28;20044;-76
2022/05/31 02:34:41;;;;;;;5.88;1.48;;;15.60;88.10;;;;;;4982985;28;20023;-76
2022/05/31 02:37:09;;;;;;;8.63;2.50;;;15.60;88.10;;;;;;4981389;28;20030;-76
2022/05/31 02:39:35;;;;;;;5.50;1.35;;;15.60;88.20;;;;;;4981578;28;20427;-77
2022/05/31 02:42:03;;;;;;;5.07;1.80;;;15.60;88.20;;;;;;4976769;28;20051;-77
2022/05/31 02:44:29;;;;;;;1.98;1.10;;;15.60;88.20;;;;;;4980993;28;20023;-77
2022/05/31 02:46:56;;;;;;;7.72;1.85;;;15.60;88.30;;;;;;4977396;28;20027;-76
2022/05/31 02:49:22;;;;;;;13.35;2.33;;;15.60;88.30;;;;;;5080142;28;20065;-76
2022/05/31 02:51:49;;;;;;;6.80;2.28;;;15.60;88.40;;;;;;4975555;28;20019;-76
2022/05/31 02:54:18;;;;;;;10.60;1.75;;;15.60;88.40;;;;;;4978023;28;20584;-76
2022/05/31 02:56:48;;;;;;;6.15;2.13;;;15.60;88.50;;;;;;4978456;28;20030;-77
2022/05/31 02:59:15;;;;;;;5.90;1.73;;;15.60;88.40;;;;;;4979673;28;20118;-76
2022/05/31 03:01:43;;;;;;;4.53;1.52;;;15.60;88.30;;;;;;4974665;28;20031;-76
2022/05/31 03:04:11;;;;;;;5.13;1.85;;;15.60;88.20;;;;;;4975580;28;20026;-75
2022/05/31 03:06:38;;;;;;;8.82;1.50;;;15.60;88.10;;;;;;4979424;28;20050;-75
2022/05/31 03:09:07;;;;;;;6.70;1.92;;;15.60;88.10;;;;;;4981540;28;20022;-75
2022/05/31 03:11:54;;;;;;;6.10;1.27;;;15.50;87.90;;;;;;4978420;28;20033;-74
2022/05/31 03:14:35;;;;;;;4.88;2.03;;;15.50;88.30;;;;;;4977962;28;20014;-74
2022/05/31 03:17:14;;;;;;;4.75;1.65;;;15.50;87.40;;;;;;4977725;28;20023;-75
2022/05/31 03:19:55;;;;;;;5.25;1.45;;;15.50;87.30;;;;;;4983192;28;20019;-74
2022/05/31 03:22:27;;;;;;;11.57;2.13;;;15.50;87.10;;;;;;4971959;28;20100;-76
2022/05/31 03:24:59;;;;;;;4.20;1.42;;;15.50;86.90;;;;;;4980750;28;20022;-75
2022/05/31 03:27:27;;;;;;;6.55;1.35;;;15.50;86.70;;;;;;4975446;28;20027;-76
2022/05/31 03:29:55;;;;;;;3.58;1.10;;;15.50;86.80;;;;;;5050122;28;20022;-76
2022/05/31 03:32:22;;;;;;;6.63;1.80;;;15.50;86.70;;;;;;4976828;28;20034;-76
2022/05/31 03:34:49;;;;;;;8.38;1.30;;;15.50;86.30;;;;;;4978812;28;20094;-77
2022/05/31 03:37:16;;;;;;;6.35;1.25;;;15.50;85.90;;;;;;4974994;28;20033;-76
2022/05/31 03:39:42;;;;;;;7.93;1.25;;;15.40;85.50;;;;;;4977963;28;20597;-76
2022/05/31 03:42:09;;;;;;;17.55;13.00;;;15.40;85.30;;;;;;4982024;28;20018;-76
2022/05/31 03:44:35;;;;;;;40.67;29.35;;;15.40;85.50;;;;;;4974375;28;20018;-77
2022/05/31 03:47:03;;;;;;;29.15;16.35;;;15.40;85.40;;;;;;4977852;28;20034;-77
2022/05/31 03:49:31;;;;;;;15.32;9.57;;;15.40;85.30;;;;;;4976189;28;20031;-77
2022/05/31 03:51:58;;;;;;;13.60;4.28;;;15.40;85.10;;;;;;5051382;28;20071;-77
2022/05/31 03:54:25;;;;;;;6.85;2.88;;;15.40;85.10;;;;;;4979500;28;20033;-77
2022/05/31 03:56:52;;;;;;;9.85;3.15;;;15.30;85.00;;;;;;4974050;28;20038;-78
2022/05/31 03:59:18;;;;;;;5.55;1.58;;;15.30;84.80;;;;;;4975454;28;20065;-77
2022/05/31 04:01:45;;;;;;;6.53;1.65;;;15.30;84.70;;;;;;4982052;28;20048;-77
2022/05/31 04:04:11;;;;;;;7.85;1.45;;;15.20;84.60;;;;;;4979031;28;20030;-77
2022/05/31 04:06:38;;;;;;;7.38;1.55;;;15.30;84.60;;;;;;4976288;28;20050;-74
2022/05/31 04:09:05;;;;;;;101.65;69.82;;;15.20;84.30;;;;;;4977816;28;20034;-75
2022/05/31 04:11:31;;;;;;;56.28;40.40;;;15.20;84.40;;;;;;4978923;28;20472;-76
2022/05/31 04:13:58;;;;;;;39.45;27.98;;;15.20;84.20;;;;;;4973205;28;20109;-75
2022/05/31 04:16:26;;;;;;;24.15;14.52;;;15.20;84.30;;;;;;4971859;28;20030;-77
2022/05/31 04:18:54;;;;;;;18.55;8.90;;;15.10;84.10;;;;;;5049591;28;20049;-74
2022/05/31 04:21:21;;;;;;;10.00;4.85;;;15.10;83.90;;;;;;5047422;28;20509;-75
2022/05/31 04:23:58;;;;;;;6.82;2.95;;;15.10;83.80;;;;;;4972287;28;20164;-72
2022/05/31 04:26:32;;;;;;;7.00;2.38;;;15.10;83.70;;;;;;4981942;28;20031;-71
2022/05/31 04:29:00;;;;;;;9.35;2.42;;;15.10;83.50;;;;;;5059944;28;20034;-71
2022/05/31 04:31:27;;;;;;;4.20;2.30;;;15.10;83.40;;;;;;4974476;28;20027;-72
2022/05/31 04:33:53;;;;;;;7.82;1.35;;;15.10;83.40;;;;;;4990469;28;20648;-71
2022/05/31 04:36:21;;;;;;;5.32;1.70;;;15.10;83.30;;;;;;4977172;28;20026;-74
2022/05/31 04:38:48;;;;;;;22.92;10.45;;;15.00;83.20;;;;;;4985768;28;20022;-74
2022/05/31 04:41:21;;;;;;;21.45;11.02;;;15.00;83.30;;;;;;4985582;28;20042;-72
2022/05/31 04:43:47;;;;;;;13.40;5.18;;;15.00;83.60;;;;;;4978650;28;20045;-74
2022/05/31 04:46:17;;;;;;;8.68;3.85;;;15.00;83.70;;;;;;4983172;28;20100;-74
2022/05/31 04:48:44;;;;;;;8.77;1.98;;;15.00;83.70;;;;;;4982175;28;20350;-69
2022/05/31 04:51:11;;;;;;;6.07;2.10;;;15.00;83.70;;;;;;4985585;28;20023;-71
2022/05/31 04:53:41;;;;;;;9.40;1.90;;;15.00;83.70;;;;;;4983640;28;20544;-74
2022/05/31 04:56:11;;;;;;;6.13;1.58;;;15.00;83.60;;;;;;4981844;28;20031;-73
2022/05/31 04:58:39;;;;;;;6.72;1.88;;;15.00;83.80;;;;;;4980176;28;20497;-74
2022/05/31 05:01:08;;;;;;;5.53;1.98;;;15.00;83.80;;;;;;4991737;28;20542;-71
2022/05/31 05:03:35;;;;;;;5.35;1.95;;;15.00;83.70;;;;;;4983377;28;20046;-72
2022/05/31 05:06:07;;;;;;;5.82;1.20;;;15.00;83.80;;;;;;4981744;28;20091;-74
2022/05/31 05:08:35;;;;;;;6.22;1.80;;;14.90;83.70;;;;;;4976721;28;20089;-72
2022/05/31 05:11:03;;;;;;;7.63;1.75;;;15.00;83.70;;;;;;4981885;28;20095;-74
2022/05/31 05:13:30;;;;;;;4.32;1.23;;;14.90;83.70;;;;;;4976921;28;20019;-75
2022/05/31 05:15:59;;;;;;;4.38;1.50;;;14.90;83.60;;;;;;4978159;28;20113;-71
2022/05/31 05:18:27;;;;;;;6.03;1.40;;;15.00;83.60;;;;;;4976585;28;20023;-73
2022/05/31 05:20:54;;;;;;;8.07;1.70;;;14.90;83.60;;;;;;4981510;28;20409;-71
2022/05/31 05:23:21;;;;;;;2.13;1.25;;;14.90;83.50;;;;;;4977471;28;20026;-72
2022/05/31 05:25:52;;;;;;;5.47;1.30;;;14.90;83.60;;;;;;4981427;28;20035;-74
2022/05/31 05:31:05;;;;;;;8.43;1.88;;;14.90;83.50;;;;;;4977644;28;20034;-71
2022/05/31 05:33:32;;;;;;;6.82;1.40;;;14.90;83.40;;;;;;4980167;28;20030;-72
2022/05/31 05:35:59;;;;;;;4.50;1.45;;;14.90;83.40;;;;;;4973611;28;20018;-73
2022/05/31 05:38:25;;;;;;;6.38;1.55;;;14.90;83.40;;;;;;4983232;28;20527;-74
2022/05/31 05:40:52;;;;;;;2.10;1.08;;;14.90;83.50;;;;;;5048665;28;20404;-72
2022/05/31 05:43:18;;;;;;;8.02;1.73;;;14.90;83.60;;;;;;4977713;28;20456;-74
2022/05/31 05:45:45;;;;;;;9.13;1.23;;;14.90;83.60;;;;;;4979474;28;20042;-74
2022/05/31 05:48:11;;;;;;;9.23;1.65;;;14.90;83.80;;;;;;4979445;28;20026;-73
2022/05/31 05:50:38;;;;;;;5.18;1.45;;;14.90;83.90;;;;;;4984049;28;20098;-73
2022/05/31 05:53:09;;;;;;;7.40;1.65;;;14.90;84.20;;;;;;4978661;28;20023;-73
2022/05/31 05:55:36;;;;;;;9.13;1.90;;;14.90;84.40;;;;;;4982067;28;20015;-74
2022/05/31 05:58:07;;;;;;;12.30;2.13;;;14.90;84.30;;;;;;4983238;28;20061;-72
2022/05/31 06:00:42;;;;;;;5.65;1.83;;;14.90;84.20;;;;;;4983073;28;20027;-73
2022/05/31 06:03:25;;;;;;;8.68;1.85;;;14.90;84.10;;;;;;4979658;28;20066;-73
2022/05/31 06:05:52;;;;;;;7.38;2.38;;;14.90;84.10;;;;;;4981965;28;20122;-73
2022/05/31 06:08:31;;;;;;;10.35;2.25;;;14.90;84.50;;;;;;4979885;28;20149;-73
2022/05/31 06:11:14;;;;;;;11.65;3.72;;;14.90;84.60;;;;;;4975894;28;20035;-71
2022/05/31 06:13:54;;;;;;;5.38;1.50;;;14.90;84.70;;;;;;4976774;28;20037;-73
2022/05/31 06:16:24;;;;;;;12.70;1.60;;;14.90;84.80;;;;;;4974462;28;20019;-71
2022/05/31 06:18:56;;;;;;;8.43;2.03;;;15.00;85.00;;;;;;4977613;28;20014;-73
2022/05/31 06:21:25;;;;;;;7.95;2.50;;;15.00;85.20;;;;;;4976217;28;20665;-74
2022/05/31 06:23:55;;;;;;;5.22;1.38;;;15.00;85.20;;;;;;4984676;28;20026;-74
2022/05/31 06:26:22;;;;;;;8.13;1.85;;;15.00;85.40;;;;;;4979724;28;20390;-75
2022/05/31 06:28:48;;;;;;;9.68;1.48;;;15.00;85.50;;;;;;4984431;28;20436;-75
2022/05/31 06:31:15;;;;;;;4.80;2.35;;;15.00;85.50;;;;;;4979920;28;20109;-75
2022/05/31 06:33:41;;;;;;;6.60;2.00;;;15.10;85.60;;;;;;4975432;28;20014;-74
2022/05/31 06:36:08;;;;;;;2.05;1.20;;;15.10;85.60;;;;;;4973469;28;20015;-74
2022/05/31 06:38:34;;;;;;;8.30;2.33;;;15.10;85.70;;;;;;4981835;28;20105;-75
2022/05/31 06:41:02;;;;;;;6.28;2.25;;;15.10;85.90;;;;;;4974334;28;20621;-74
2022/05/31 06:43:28;;;;;;;6.40;1.58;;;15.10;86.10;;;;;;4978978;28;20062;-74
2022/05/31 06:45:55;;;;;;;5.30;1.98;;;15.10;86.30;;;;;;4979543;28;20034;-74
2022/05/31 06:48:21;;;;;;;13.27;3.38;;;15.10;86.40;;;;;;4984116;28;20512;-74
2022/05/31 06:50:48;;;;;;;4.65;1.60;;;15.20;86.50;;;;;;4982838;28;20053;-74
2022/05/31 06:58:45;;;;;;;;;;;15.20;86.40;;;;;;4979008;28;20041;-74
2022/05/31 07:01:12;;;;;;;9.65;1.83;;;15.20;86.40;;;;;;4976047;28;19917;-75
2022/05/31 07:03:38;;;;;;;9.07;1.83;;;15.20;86.40;;;;;;4974071;28;20072;-74
2022/05/31 07:06:05;;;;;;;4.93;1.90;;;15.20;86.30;;;;;;4979897;28;20428;-74
2022/05/31 07:08:31;;;;;;;10.45;2.15;;;15.20;86.30;;;;;;4977880;28;20123;-74
2022/05/31 07:10:59;;;;;;;7.65;1.52;;;15.20;86.20;;;;;;4981748;28;20031;-73
2022/05/31 07:13:26;;;;;;;7.47;2.25;;;15.20;86.00;;;;;;4980980;28;20029;-74
2022/05/31 07:15:52;;;;;;;8.32;2.28;;;15.20;86.00;;;;;;4983670;28;20026;-74
2022/05/31 07:18:19;;;;;;;9.20;2.85;;;15.20;86.00;;;;;;4973402;28;20031;-74
2022/05/31 07:20:46;;;;;;;11.60;2.08;;;15.20;86.10;;;;;;4975185;28;20029;-74
2022/05/31 07:23:13;;;;;;;9.65;1.90;;;15.20;86.20;;;;;;4984365;28;20543;-74
2022/05/31 07:25:40;;;;;;;8.80;2.08;;;15.20;86.20;;;;;;4982134;28;20467;-74
2022/05/31 07:28:07;;;;;;;8.10;1.98;;;15.20;86.20;;;;;;4981127;28;20058;-74
2022/05/31 07:30:34;;;;;;;8.43;1.85;;;15.30;86.30;;;;;;4977300;28;20026;-74
2022/05/31 07:33:00;;;;;;;10.20;1.92;;;15.30;86.40;;;;;;4980278;28;20050;-74
2022/05/31 07:35:28;;;;;;;4.40;1.98;;;15.30;86.30;;;;;;4982400;28;20026;-74
2022/05/31 07:37:54;;;;;;;16.73;2.25;;;15.30;86.30;;;;;;4982232;28;20026;-74
2022/05/31 07:40:21;;;;;;;5.10;1.25;;;15.30;86.20;;;;;;4982383;28;20057;-74
2022/05/31 07:42:47;;;;;;;9.13;1.60;;;15.40;86.20;;;;;;4976816;28;20473;-74
2022/05/31 07:45:14;;;;;;;5.13;1.38;;;15.40;86.20;;;;;;4981080;28;20069;-73
2022/05/31 07:47:40;;;;;;;5.30;1.40;;;15.40;86.10;;;;;;4978036;28;20441;-74
2022/05/31 07:50:07;;;;;;;9.63;1.80;;;15.50;86.20;;;;;;4973115;28;20026;-74
2022/05/31 07:52:34;;;;;;;8.45;1.33;;;15.50;86.10;;;;;;4976521;28;20054;-73
2022/05/31 07:55:01;;;;;;;6.70;1.08;;;15.50;86.10;;;;;;4979823;28;20031;-74
2022/05/31 08:00:13;;;;;;;5.55;1.52;;;15.60;86.20;;;;;;4981663;28;20438;-75
2022/05/31 08:02:39;;;;;;;5.90;2.50;;;15.60;86.20;;;;;;4978244;28;20015;-74
2022/05/31 08:05:06;;;;;;;10.90;3.13;;;15.60;86.30;;;;;;4977718;28;20473;-74
2022/05/31 08:07:33;;;;;;;6.78;2.65;;;15.60;86.40;;;;;;4975175;28;20041;-74
2022/05/31 08:09:59;;;;;;;5.95;2.10;;;15.70;86.40;;;;;;4982247;28;20034;-74
2022/05/31 08:12:26;;;;;;;5.25;1.38;;;15.70;86.40;;;;;;4977734;28;20022;-74
2022/05/31 08:14:52;;;;;;;6.07;1.63;;;15.70;86.30;;;;;;4981081;28;20397;-74
2022/05/31 08:17:19;;;;;;;7.88;2.35;;;15.70;86.20;;;;;;4975236;28;20018;-74
2022/05/31 08:19:45;;;;;;;8.48;2.53;;;15.80;86.20;;;;;;4979431;28;20105;-74
2022/05/31 08:22:12;;;;;;;5.78;1.60;;;15.80;86.10;;;;;;4972684;28;20062;-74
2022/05/31 08:24:39;;;;;;;5.78;1.40;;;15.80;85.90;;;;;;4982287;28;20148;-73
2022/05/31 08:27:06;;;;;;;5.18;2.42;;;15.90;85.90;;;;;;4975579;28;20046;-74
2022/05/31 08:29:32;;;;;;;7.32;2.13;;;15.90;85.80;;;;;;4976675;28;20038;-73
2022/05/31 08:31:59;;;;;;;5.72;1.45;;;15.90;85.80;;;;;;4980181;28;20022;-74
2022/05/31 08:34:29;;;;;;;3.40;1.42;;;15.90;85.70;;;;;;4984067;28;20061;-74
2022/05/31 08:36:56;;;;;;;5.25;1.13;;;16.00;85.70;;;;;;4977348;28;20030;-74
2022/05/31 08:39:23;;;;;;;4.15;1.63;;;16.00;85.50;;;;;;4978578;28;20023;-74
2022/05/31 08:41:56;;;;;;;7.47;1.52;;;16.00;85.50;;;;;;4973426;28;20493;-74
2022/05/31 08:44:40;;;;;;;7.47;2.13;;;16.10;85.40;;;;;;4975863;28;20014;-74
2022/05/31 08:47:22;;;;;;;7.97;1.70;;;16.10;85.30;;;;;;4981891;28;20442;-74
2022/05/31 08:53:30;;;;;;;7.25;2.05;;;16.10;85.10;;;;;;4976376;28;20081;-74
2022/05/31 08:59:14;;;;;;;7.35;1.77;;;16.20;85.00;;;;;;4972886;28;20042;-74
2022/05/31 09:02:04;;;;;;;11.80;3.25;;;16.30;84.90;;;;;;4975104;28;20027;-74
2022/05/31 09:04:38;;;;;;;10.85;1.75;;;16.30;84.90;;;;;;4975544;28;20157;-74
2022/05/31 09:07:22;;;;;;;6.88;2.05;;;16.40;84.90;;;;;;4979257;28;20517;-74
2022/05/31 09:10:04;;;;;;;5.85;1.73;;;16.40;84.80;;;;;;4982039;28;20038;-74
2022/05/31 09:12:46;;;;;;;7.55;1.55;;;16.40;84.80;;;;;;4971114;28;20022;-74
2022/05/31 09:15:26;;;;;;;9.50;1.50;;;16.50;84.70;;;;;;4982496;28;20031;-73
2022/05/31 09:17:59;;;;;;;7.18;1.85;;;16.50;84.60;;;;;;5048112;28;20033;-75
2022/05/31 09:20:49;;;;;;;6.68;1.50;;;16.50;84.50;;;;;;4976952;28;20094;-74
2022/05/31 09:23:26;;;;;;;9.27;1.73;;;16.60;84.40;;;;;;4987289;28;20031;-74
2022/05/31 09:26:10;;;;;;;11.93;3.55;;;16.60;84.20;;;;;;4985963;28;20034;-74
2022/05/31 09:28:53;;;;;;;11.80;3.53;;;16.70;84.20;;;;;;4978255;28;20105;-74
2022/05/31 09:31:37;;;;;;;13.07;4.47;;;16.70;84.30;;;;;;4978173;28;20384;-74
2022/05/31 09:34:19;;;;;;;9.93;2.55;;;16.80;84.30;;;;;;4979094;28;20049;-73
2022/05/31 09:36:56;;;;;;;5.43;1.58;;;16.90;84.30;;;;;;4985369;28;20100;-74
2022/05/31 09:39:56;;;;;;;8.18;2.58;;;16.90;84.80;;;;;;4981923;28;20477;-73
2022/05/31 09:42:29;;;;;;;8.43;3.50;;;16.90;84.00;;;;;;4996165;28;20450;-74
2022/05/31 09:45:05;;;;;;;9.57;2.25;;;16.90;83.60;;;;;;4983249;28;20026;-75
2022/05/31 09:47:32;;;;;;;8.73;3.08;;;16.90;83.20;;;;;;4981406;28;20053;-74
2022/05/31 09:49:58;;;;;;;11.77;2.13;;;16.90;82.90;;;;;;4982700;28;20052;-74
2022/05/31 09:52:34;;;;;;;10.45;2.10;;;16.80;82.50;;;;;;4974523;28;20121;-75
2022/05/31 09:58:08;;;;;;;8.68;2.35;;;16.80;82.20;;;;;;4981331;28;20500;-75
2022/05/31 10:00:38;;;;;;;11.52;2.88;;;16.80;81.90;;;;;;4981808;28;20109;-74
2022/05/31 10:03:10;;;;;;;8.77;2.47;;;16.80;81.50;;;;;;4981730;28;20037;-74
2022/05/31 10:05:38;;;;;;;9.48;2.13;;;16.80;81.10;;;;;;4979736;28;20038;-74
2022/05/31 10:08:17;;;;;;;15.63;4.03;;;16.80;80.30;;;;;;4976813;28;20039;-74
2022/05/31 10:10:48;;;;;;;9.43;2.20;;;16.90;80.00;;;;;;4983124;28;20029;-74
2022/05/31 10:13:37;;;;;;;12.35;2.78;;;17.00;79.90;;;;;;4980383;28;20129;-74
2022/05/31 10:16:24;;;;;;;7.60;2.00;;;17.00;79.40;;;;;;4976593;28;20431;-74
2022/05/31 10:18:56;;;;;;;7.03;2.45;;;17.10;78.50;;;;;;4984013;28;20030;-74
2022/05/31 10:21:41;;;;;;;7.43;2.03;;;17.10;77.70;;;;;;4976366;28;20064;-74
2022/05/31 10:24:21;;;;;;;12.13;2.40;;;17.20;77.30;;;;;;4982632;28;20648;-74
2022/05/31 10:27:09;;;;;;;12.07;3.38;;;17.20;76.90;;;;;;4980131;28;20292;-74
2022/05/31 10:29:51;;;;;;;10.73;2.92;;;17.20;76.50;;;;;;4973315;28;20026;-74
2022/05/31 10:32:51;;;;;;;5.80;1.92;;;17.20;76.00;;;;;;4981517;28;20489;-74
2022/05/31 10:35:25;;;;;;;10.88;2.10;;;17.30;76.10;;;;;;4975740;28;20027;-74
2022/05/31 10:38:01;;;;;;;15.35;3.10;;;17.40;75.90;;;;;;4979108;28;20068;-74
2022/05/31 10:40:53;;;;;;;9.63;1.98;;;17.30;75.90;;;;;;4982235;28;20105;-74
2022/05/31 10:43:41;;;;;;;9.63;2.13;;;17.40;75.50;;;;;;4974947;28;20424;-74
2022/05/31 10:46:17;;;;;;;8.82;2.80;;;17.50;75.30;;;;;;4978125;28;20129;-74
2022/05/31 10:48:49;;;;;;;6.75;2.20;;;17.50;74.60;;;;;;4981479;28;20061;-74
2022/05/31 10:51:38;;;;;;;8.30;2.50;;;17.60;74.60;;;;;;4982702;28;20019;-74
2022/05/31 10:54:30;;;;;;;12.80;3.97;;;17.60;74.40;;;;;;4975384;28;20042;-74
2022/05/31 10:57:22;;;;;;;8.02;2.97;;;17.70;74.40;;;;;;4980571;28;20023;-74
2022/05/31 11:00:05;;;;;;;7.38;2.22;;;17.70;74.30;;;;;;4985653;28;20077;-74
2022/05/31 11:03:01;;;;;;;12.93;3.22;;;17.80;74.40;;;;;;4977229;28;20044;-74
2022/05/31 11:05:45;;;;;;;14.20;2.33;;;17.80;75.10;;;;;;4975304;28;20031;-74
2022/05/31 11:11:47;;;;;;;10.60;2.47;;;17.90;74.90;;;;;;4981960;28;20118;-74
2022/05/31 11:14:43;;;;;;;14.52;2.83;;;18.00;74.20;;;;;;5044689;28;20028;-74
2022/05/31 11:17:15;;;;;;;12.85;2.58;;;18.00;73.90;;;;;;4979139;28;20031;-74
2022/05/31 11:19:57;;;;;;;11.15;2.15;;;18.10;73.40;;;;;;4981240;28;20074;-74
2022/05/31 11:22:36;;;;;;;12.85;3.38;;;18.20;73.40;;;;;;4980056;28;20095;-74
2022/05/31 11:25:44;;;;;;;8.82;2.70;;;18.20;73.20;;;;;;4980207;28;20022;-74
2022/05/31 11:28:46;;;;;;;5.70;1.95;;;18.30;72.80;;;;;;4982107;28;20074;-74
2022/05/31 11:31:22;;;;;;;9.98;2.63;;;18.30;72.50;;;;;;4986619;28;20038;-74
2022/05/31 11:34:11;;;;;;;11.68;2.33;;;18.40;72.40;;;;;;4977104;28;20121;-74
2022/05/31 11:36:47;;;;;;;9.57;2.35;;;18.40;72.10;;;;;;4982814;28;20046;-74
2022/05/31 11:39:48;;;;;;;17.60;3.38;;;18.40;71.60;;;;;;4975158;28;20106;-74
2022/05/31 11:42:48;;;;;;;23.35;3.42;;;18.50;71.70;;;;;;4981474;28;20018;-75
2022/05/31 11:45:41;;;;;;;13.18;2.40;;;18.50;71.70;;;;;;4979013;28;20030;-74
2022/05/31 11:48:26;;;;;;;8.50;3.47;;;18.50;71.60;;;;;;4975822;28;20030;-74
2022/05/31 11:51:11;;;;;;;11.77;2.75;;;18.50;71.60;;;;;;4977359;28;20043;-74
2022/05/31 11:54:12;;;;;;;16.55;3.55;;;18.60;71.50;;;;;;4975209;28;20117;-75
2022/05/31 11:57:07;;;;;;;11.68;2.45;;;18.60;71.20;;;;;;4981470;28;20026;-74
2022/05/31 11:59:44;;;;;;;11.60;2.43;;;18.70;71.10;;;;;;4975195;28;20023;-74
2022/05/31 12:02:37;;;;;;;9.27;2.92;;;18.70;70.70;;;;;;4976924;28;20276;-74
2022/05/31 12:05:14;;;;;;;11.13;2.15;;;18.70;70.20;;;;;;4979789;28;20103;-75
2022/05/31 12:07:50;;;;;;;13.57;3.63;;;18.70;70.10;;;;;;4982271;28;20064;-74
2022/05/31 12:10:26;;;;;;;9.70;3.22;;;18.80;70.30;;;;;;4979887;28;20429;-74
2022/05/31 12:12:55;;;;;;;9.60;2.85;;;18.80;70.00;;;;;;4978958;28;20030;-74
2022/05/31 12:15:30;;;;;;;9.52;2.95;;;18.80;69.90;;;;;;4973288;28;20531;-74
2022/05/31 12:18:06;;;;;;;11.57;3.05;;;18.90;69.80;;;;;;4977494;28;20014;-74
2022/05/31 12:20:58;;;;;;;9.43;3.85;;;18.80;69.50;;;;;;4978201;28;20026;-74
2022/05/31 12:23:41;;;;;;;10.10;3.03;;;18.90;69.60;;;;;;4981133;28;20173;-74
2022/05/31 12:26:24;;;;;;;6.15;2.60;;;18.80;69.80;;;;;;4974252;28;20130;-74
2022/05/31 12:29:00;;;;;;;8.43;1.98;;;18.90;70.20;;;;;;4976008;28;20026;-74
2022/05/31 12:31:30;;;;;;;;;;;18.90;70.30;;;;;;4978252;28;20015;-74
2022/05/31 12:34:14;;;;;;;8.43;2.15;;;19.00;70.40;;;;;;4973196;28;20003;-74
2022/05/31 12:37:01;;;;;;;10.43;2.30;;;18.90;69.70;;;;;;4974053;28;20031;-74
2022/05/31 12:39:30;;;;;;;8.40;2.40;;;19.00;69.50;;;;;;4977139;28;20030;-74
2022/05/31 12:42:16;;;;;;;11.30;3.33;;;19.00;69.60;;;;;;4981033;28;20041;-74
2022/05/31 12:44:44;;;;;;;7.60;2.53;;;19.00;69.40;;;;;;4983956;28;20105;-73
2022/05/31 12:47:17;;;;;;;10.25;2.85;;;19.00;69.30;;;;;;4975409;28;20039;-74
2022/05/31 12:49:56;;;;;;;13.57;2.42;;;19.10;69.20;;;;;;4979070;28;20032;-74
2022/05/31 12:55:36;;;;;;;8.68;3.63;;;19.10;68.00;;;;;;4981178;28;20038;-74
2022/05/31 12:58:26;;;;;;;15.52;3.70;;;19.10;67.70;;;;;;4982905;28;20026;-74
2022/05/31 13:00:58;;;;;;;9.73;2.40;;;19.10;67.80;;;;;;4977941;28;20018;-73
2022/05/31 13:03:33;;;;;;;13.10;2.65;;;19.10;67.70;;;;;;4982350;28;20031;-73
2022/05/31 13:06:38;;;;;;;13.70;4.50;;;19.10;67.80;;;;;;4978219;28;20034;-73
2022/05/31 13:09:23;;;;;;;10.13;2.67;;;19.10;68.20;;;;;;4984859;28;20043;-73
2022/05/31 13:20:56;;;;;;;5.97;1.85;;;19.10;68.40;;;;;;4982784;28;20617;-74
2022/05/31 13:23:35;;;;;;;7.30;2.55;;;19.10;67.80;;;;;;4981188;28;20023;-73
2022/05/31 13:26:17;;;;;;;8.23;2.05;;;19.10;67.50;;;;;;4980351;28;20091;-74
2022/05/31 13:28:57;;;;;;;9.10;2.17;;;19.10;67.30;;;;;;4984735;28;20019;-73
2022/05/31 13:31:25;;;;;;;4.95;1.92;;;19.10;67.60;;;;;;4983390;28;20014;-73
2022/05/31 13:34:04;;;;;;;8.40;2.03;;;19.10;67.40;;;;;;4978824;28;20018;-74
2022/05/31 13:36:44;;;;;;;8.32;2.53;;;19.10;67.30;;;;;;4976704;28;20108;-74
2022/05/31 13:39:14;;;;;;;8.38;2.63;;;19.10;67.50;;;;;;4977280;28;20027;-74
2022/05/31 13:41:48;;;;;;;7.18;2.63;;;19.10;67.90;;;;;;4980629;28;20026;-71
2022/05/31 13:44:20;;;;;;;6.38;3.10;;;19.10;67.80;;;;;;4986359;28;20045;-73
2022/05/31 13:46:49;;;;;;;7.10;2.47;;;19.10;67.60;;;;;;4979285;28;20564;-73
2022/05/31 13:49:42;;;;;;;5.13;1.95;;;19.10;67.60;;;;;;4975189;28;20516;-73
2022/05/31 13:52:25;;;;;;;10.40;2.13;;;19.10;67.50;;;;;;4977136;28;20069;-73